Tiempo atmosférico en la estación meteorológica de Marbella, Málaga (2 m.)



Fecha
DESCASC
Temp. máxima en grados centígrados (hora)
DESCASC
Temp. mínima en grados centígrados (hora)
DESCASC
Temp. media en grados centígrados
DESCASC
Racha de viento máxima en m/sg (hora)
DESCASC
Velocidad máxima media en intervalos de 10 minutos(hora)
DESCASC
Precipitaciones diarias en mm
DESCASC
Precipitaciones de 00:00 a 06:00 en mm
DESCASC
Precipitaciones de 06:00 a 12:00 en mm
DESCASC
Precipitaciones de 12:00 a 18:00 en mm
DESCASC
Precipitaciones de 18:00 a 24:00 en mm
DESCASC
18-08-2019 26.5 (16:40) 20.6 (09:00) 23.6 6.39 (18:30) 5 (08:30) 0 0 0 0 0
17-08-2019 26.5 (18:30) 20.3 (06:20) 23.4 3.06 (23:10) 2.5 (23:10) 0 0 0 0 0
16-08-2019 25.9 (17:00) 20 (07:50) 22.9 4.44 (12:00) 4.17 (12:00) 0 0 0 0 0
15-08-2019 27.9 (18:30) 19.9 (00:00) 23.9 5.28 (09:40) 4.44 (09:40) 0 0 0 0 0
14-08-2019 27.2 (20:00) 22.9 (00:00) 25.1 6.94 (11:50) 6.67 (12:00) 0 0 0 0 0
13-08-2019 28.8 (17:40) 21.6 (00:00) 25.2 9.17 (02:20) 8.33 (06:00) 0 0 0 0 0
12-08-2019 27 (05:50) 19.6 (00:00) 23.3 12.78 (07:00) 6.39 (22:40) 0.2 0 0 0.2 0
11-08-2019 25.8 (19:10) 19.6 (00:00) 22.7 6.39 (14:20) 5.28 (14:20) 0 0 0 0 0
10-08-2019 24.9 (19:20) 19.6 (00:00) 22.3 7.5 (22:10) 6.11 (22:10) 0 0 0 0 0
09-08-2019 24.3 (20:50) 19.7 (00:00) 22 6.94 (15:50) 5.83 (15:50) 0 0 0 0 0
08-08-2019 27.9 (06:00) 20.9 (00:00) 24.4 7.5 (05:40) 4.44 (05:30) 0 0 0 0 0
07-08-2019 27.5 (18:00) 20.8 (00:00) 24.1 8.33 (17:10) 6.94 (17:10) 0.2 0 0 0.2 0
06-08-2019 27.1 (14:10) 21.2 (00:00) 24.2 6.94 (18:20) 5.83 (18:20) 0 0 0 0 0
05-08-2019 26.9 (17:40) 21.3 (00:00) 24.1 6.11 (03:00) 5 (03:10) 0 0 0 0 0
04-08-2019 26.2 (20:20) 20.8 (00:00) 23.5 5.56 (08:40) 5 (08:40) 0 0 0 0 0
03-08-2019 25 (11:20) 20.7 (00:00) 22.9 4.72 (22:20) 4.17 (22:20) 0 0 0 0 0
02-08-2019 24.6 (18:50) 20.7 (00:00) 22.7 8.61 (16:20) 8.33 (16:20) 0 0 0 0 0
01-08-2019 26 (14:20) 22.7 (00:00) 24.4 6.11 (21:00) 5.56 (19:00) 0 0 0 0 0
31-07-2019 27.7 (16:00) 21.4 (00:00) 24.6 11.39 (01:30) 8.61 (01:30) 0 0 0 0 0
30-07-2019 25.8 (18:40) 19.4 (00:00) 22.6 7.5 (14:20) 6.94 (14:20) 0 0 0 0 0
29-07-2019 24.2 (19:30) 18.8 (00:00) 21.5 9.17 (19:00) 7.78 (19:00) 0 0 0 0 0
28-07-2019 23.7 (18:30) 19.6 (00:00) 21.7 13.61 (01:50) 9.17 (01:50) 0 0 0 0 0
27-07-2019 23.6 (17:00) 21.5 (00:00) 22.6 17.78 (17:10) 14.72 (17:00) 0 0 0 0 0
26-07-2019 26 (20:00) 21.6 (00:00) 23.8 14.72 (18:50) 12.22 (18:50) 0 0 0 0 0
25-07-2019 26.1 (17:50) 22.7 (00:00) 24.4 5 (20:40) 4.17 (20:40) 0 0 0 0 0
24-07-2019 29.4 (15:40) 23.8 (00:00) 26.6 5.83 (16:00) 4.44 (16:30) 0 0 0 0 0

Gráficas

Temp. máximas Temp. mínimas Temp. medias Precipitaciones Rachas de viento máximas Velocidades máximas media en intervalos de 10 minutos

Datos horarios

Fecha y hora oficial Temperatura (ºC) Velocidad del viento (km/h) Dirección del viento Racha (km/h) Dirección de racha Precipitación (mm) Presión (hPa) Tendencia (hPa) Humedad (%)
2019-08-22 23:00:00 25.2 15 Nordeste 25 Nordeste 0 -- -- 74
2019-08-22 22:00:00 25.4 15 Nordeste 25 Nordeste 0 -- -- 72
2019-08-22 21:00:00 25.7 17 Nordeste 28 Nordeste 0 -- -- 69
2019-08-22 20:00:00 26.5 20 Nordeste 31 Nordeste 0 -- -- 67
2019-08-22 19:00:00 26.7 25 Nordeste 35 Este 0 -- -- 66
2019-08-22 18:00:00 26.6 28 Este 41 Nordeste 0 -- -- 63
2019-08-22 17:00:00 26.4 29 Nordeste 37 Nordeste 0 -- -- 69
2019-08-22 16:00:00 26.5 33 Nordeste 40 Nordeste 0 -- -- 66
2019-08-22 15:00:00 26.1 28 Nordeste 37 Nordeste 0 -- -- 71
2019-08-22 14:00:00 25.9 30 Este 41 Este 0 -- -- 71
2019-08-22 13:00:00 26.2 30 Este 41 Este 0 -- -- 68
2019-08-22 12:00:00 26 27 Este 36 Este 0 -- -- 70
2019-08-22 11:00:00 26 25 Nordeste 35 Nordeste 0 -- -- 70
2019-08-22 10:00:00 25.8 21 Este 32 Nordeste 0 -- -- 71
2019-08-22 09:00:00 24.9 14 Nordeste 22 Nordeste 0 -- -- 73
2019-08-22 08:00:00 24.4 10 Nordeste 21 Nordeste 0 -- -- 77
2019-08-22 07:00:00 24.6 18 Nordeste 27 Nordeste 0 -- -- 75
2019-08-22 06:00:00 24.8 15 Nordeste 23 Nordeste 0 -- -- 75
2019-08-22 05:00:00 24.8 13 Nordeste 23 Nordeste 0 -- -- 79
2019-08-22 04:00:00 24.9 17 Nordeste 23 Nordeste 0 -- -- 80
2019-08-22 03:00:00 25.1 13 Nordeste 23 Nordeste 0 -- -- 80
2019-08-22 02:00:00 25.3 16 Nordeste 23 Nordeste 0 -- -- 79
2019-08-22 01:00:00 25.5 15 Nordeste 22 Nordeste 0 -- -- 78
2019-08-22 00:00:00 25.6 16 Nordeste 24 Nordeste 0 -- -- 77
2019-08-21 23:00:00 25.7 15 Nordeste 21 Nordeste 0 -- -- 76
2019-08-21 22:00:00 25.7 15 Nordeste 20 Este 0 -- -- 76
2019-08-21 21:00:00 26.2 14 Nordeste 26 Nordeste 0 -- -- 75
2019-08-21 20:00:00 26.6 20 Este 28 Nordeste 0 -- -- 75
2019-08-21 19:00:00 27.1 22 Este 27 Este 0 -- -- 72
2019-08-21 18:00:00 27.3 20 Este 28 Nordeste 0 -- -- 70
2019-08-21 17:00:00 27.7 19 Nordeste 27 Nordeste 0 -- -- 71
2019-08-21 16:00:00 27.3 21 Nordeste 27 Este 0 -- -- 73
2019-08-21 15:00:00 27.1 21 Nordeste 31 Nordeste 0 -- -- 73
2019-08-21 14:00:00 27 23 Nordeste 32 Este 0 -- -- 75
2019-08-21 13:00:00 26.7 24 Nordeste 28 Este 0 -- -- 77
2019-08-21 12:00:00 26.4 23 Este 28 Nordeste 0 -- -- 78
2019-08-21 11:00:00 26.8 17 Nordeste 25 Este 0 -- -- 77
2019-08-21 10:00:00 26.2 16 Este 24 Nordeste 0 -- -- 78
2019-08-21 09:00:00 25.9 16 Nordeste 23 Nordeste 0 -- -- 80
2019-08-21 08:00:00 25.6 13 Nordeste 18 Nordeste 0 -- -- 80
2019-08-21 07:00:00 25.6 11 Nordeste 18 Nordeste 0 -- -- 80
2019-08-21 06:00:00 25.7 10 Nordeste 18 Nordeste 0 -- -- 79
2019-08-21 05:00:00 25.5 9 Nordeste 30 Nordeste 0 -- -- 80
2019-08-21 04:00:00 25.4 17 Nordeste 26 Nordeste 0 -- -- 80
2019-08-21 03:00:00 25.4 17 Nordeste 33 Nordeste 0 -- -- 79
2019-08-21 02:00:00 25.4 21 Nordeste 34 Nordeste 0 -- -- 77
2019-08-21 01:00:00 25.7 17 Nordeste 27 Nordeste 0 -- -- 71
2019-08-21 00:00:00 25.5 16 Nordeste 22 Nordeste 0 -- -- 71
2019-08-20 23:00:00 25.6 12 Nordeste 23 Nordeste 0 -- -- 71
2019-08-20 22:00:00 25.8 12 Nordeste 23 Nordeste 0 -- -- 69
2019-08-20 21:00:00 26.1 15 Nordeste 21 Este 0 -- -- 68
2019-08-20 20:00:00 26.2 17 Este 21 Este 0 -- -- 73
2019-08-20 19:00:00 25.9 9 Este 11 Este 0 -- -- 77
2019-08-20 18:00:00 25 4 Sur 14 Oeste 0 -- -- 80
2019-08-20 17:00:00 23.9 10 Oeste 18 Oeste 0 -- -- 86
2019-08-20 16:00:00 23.8 14 Oeste 15 Oeste 0 -- -- 86
2019-08-20 15:00:00 23.6 10 Oeste 13 Sudoeste 0 -- -- 87
2019-08-20 14:00:00 23.9 7 Sudoeste 17 Este 0 -- -- 84
2019-08-20 13:00:00 24.4 9 Sur 10 Sudeste 0 -- -- 82
2019-08-20 12:00:00 23.5 5 Sur 8 Sur 0 -- -- 84
2019-08-20 11:00:00 22.6 8 Sudoeste 16 Oeste 0 -- -- 87
2019-08-20 10:00:00 22.3 9 Oeste 12 Oeste 0 -- -- 79
2019-08-20 09:00:00 21.8 5 Oeste 6 Oeste 0 -- -- 83
2019-08-20 08:00:00 21.2 4 Oeste 19 Este 0 -- -- 86
2019-08-20 07:00:00 22.1 19 Este 22 Este 0 -- -- 88
2019-08-20 06:00:00 23.3 17 Nordeste 28 Nordeste 0 -- -- 79
2019-08-20 05:00:00 22.5 23 Este 26 Este 0 -- -- 83
2019-08-20 04:00:00 23 10 Este 16 Nordeste 0 -- -- 84
2019-08-20 03:00:00 21.7 2 Noroeste 7 Sudoeste 0 -- -- 77
2019-08-20 02:00:00 21.7 6 Oeste 12 Oeste 0 -- -- 77
2019-08-20 01:00:00 22 8 Oeste 15 Oeste 0 -- -- 77
2019-08-20 00:00:00 23.1 10 Oeste 17 Oeste 0 -- -- 70
2019-08-19 23:00:00 23.5 11 Sudoeste 22 Sudoeste 0 -- -- 72
2019-08-19 22:00:00 24.4 10 Oeste 16 Oeste 0 -- -- 70
2019-08-19 21:00:00 24.4 14 Oeste 18 Oeste 0 -- -- 73
2019-08-19 20:00:00 24.1 12 Oeste 23 Oeste 0 -- -- 80
2019-08-19 19:00:00 25.5 15 Oeste 25 Oeste 0 -- -- 71
2019-08-19 18:00:00 25.2 11 Oeste 15 Oeste 0 -- -- 72
2019-08-19 17:00:00 25 14 Oeste 21 Oeste 0 -- -- 73
2019-08-19 16:00:00 24.2 18 Oeste 21 Oeste 0 -- -- 79
2019-08-19 15:00:00 23.4 13 Sudoeste 20 Oeste 0 -- -- 85
2019-08-19 14:00:00 23.2 16 Oeste 19 Sudoeste 0 -- -- 84
2019-08-19 13:00:00 23.2 13 Sudoeste 15 Sudoeste 0 -- -- 84
2019-08-19 12:00:00 23.4 9 Sudoeste 13 Oeste 0 -- -- 82
2019-08-19 11:00:00 22.9 10 Oeste 13 Oeste 0 -- -- 82
2019-08-19 10:00:00 22.4 11 Oeste 14 Sudoeste 0 -- -- 85
2019-08-19 09:00:00 22.6 4 Sudoeste 9 Oeste 0 -- -- 72
2019-08-19 08:00:00 21.3 9 Oeste 12 Oeste 0 -- -- 81
2019-08-19 07:00:00 21.3 11 Oeste 15 Oeste 0 -- -- 79
2019-08-19 06:00:00 21.8 8 Oeste 13 Oeste 0 -- -- 76
2019-08-19 05:00:00 21.9 8 Oeste 12 Sudoeste 0 -- -- 76
2019-08-19 04:00:00 22.3 3 Oeste 4 Norte 0 -- -- 76
2019-08-19 03:00:00 22.4 0 Calma 7 Sur 0 -- -- 78
2019-08-19 02:00:00 22.5 5 Sudoeste 10 Oeste 0 -- -- 78
2019-08-19 01:00:00 23.2 7 Oeste 12 Oeste 0 -- -- 77
2019-08-19 00:00:00 23.6 5 Sudoeste 13 Oeste 0 -- -- 75
2019-08-18 23:00:00 23.9 6 Oeste 14 Oeste 0 -- -- 81
2019-08-18 22:00:00 24.6 4 Oeste 17 Sudoeste 0 -- -- 76
2019-08-18 21:00:00 24.8 12 Sudoeste 15 Oeste 0 -- -- 75
2019-08-18 20:00:00 25.8 12 Oeste 15 Sudoeste 0 -- -- 67
2019-08-18 19:00:00 25.7 13 Oeste 23 Oeste 0 -- -- 69
2019-08-18 18:00:00 26.2 17 Oeste 22 Oeste 0 -- -- 65
2019-08-18 17:00:00 26.5 8 Sudoeste 13 Oeste 0 -- -- 67
2019-08-18 16:00:00 25.9 8 Oeste 13 Oeste 0 -- -- 66
2019-08-18 15:00:00 25 9 Oeste 12 Oeste 0 -- -- 76
2019-08-18 14:00:00 24 11 Oeste 13 Oeste 0 -- -- 77
2019-08-18 13:00:00 23.7 12 Oeste 16 Sudoeste 0 -- -- 74
2019-08-18 12:00:00 22.7 13 Oeste 16 Sudoeste 0 -- -- 83
2019-08-18 11:00:00 22.7 10 Sudoeste 13 Sudoeste 0 -- -- 89
2019-08-18 10:00:00 22.3 13 Oeste 19 Oeste 0 -- -- 84
2019-08-18 09:00:00 20.6 16 Oeste 21 Oeste 0 -- -- 95
2019-08-18 08:00:00 21.1 15 Oeste 22 Oeste 0 -- -- 89
2019-08-18 07:00:00 21.6 13 Oeste 16 Oeste 0 -- -- 88
2019-08-18 06:00:00 21.7 14 Noroeste 19 Noroeste 0 -- -- 88
2019-08-18 05:00:00 21.9 11 Oeste 14 Oeste 0 -- -- 86
2019-08-18 04:00:00 21.9 12 Oeste 15 Oeste 0 -- -- 77
2019-08-18 03:00:00 21.4 5 Oeste 8 Oeste 0 -- -- 72
2019-08-18 02:00:00 22.4 0 Calma 7 Este 0 -- -- 74
2019-08-18 01:00:00 22.6 0 Calma 9 Oeste 0 -- -- 80
2019-08-18 00:00:00 22.7 8 Oeste 11 Noroeste 0 -- -- 79
2019-08-17 23:00:00 23.2 5 Noroeste 7 Noroeste 0 -- -- 85
2019-08-17 22:00:00 23.7 0 Calma 4 Sudoeste 0 -- -- 86
2019-08-17 21:00:00 24.9 0 Calma 4 Este 0 -- -- 79
2019-08-17 20:00:00 25.7 4 Nordeste 6 Este 0 -- -- 77
2019-08-17 19:00:00 26.2 4 Este 5 Este 0 -- -- 74
2019-08-17 18:00:00 25.9 5 Sudeste 6 Sudeste 0 -- -- 76
2019-08-17 17:00:00 25.7 3 Sudoeste 6 Sur 0 -- -- 76
2019-08-17 16:00:00 25.1 5 Sur 9 Sur 0 -- -- 77
2019-08-17 15:00:00 24.8 6 Sur 8 Sudeste 0 -- -- 79
2019-08-17 14:00:00 24.7 5 Sudeste 9 Sudeste 0 -- -- 77
2019-08-17 13:00:00 24.5 6 Sudeste 8 Sudeste 0 -- -- 78
2019-08-17 12:00:00 23.4 5 Sur 8 Sur 0 -- -- 84
2019-08-17 11:00:00 22.1 3 Sudoeste 8 Sudoeste 0 -- -- 93
2019-08-17 10:00:00 22 4 Sudeste 8 Noroeste 0 -- -- 94
2019-08-17 09:00:00 21.4 6 Noroeste 10 Noroeste 0 -- -- 94
2019-08-17 08:00:00 20.8 6 Noroeste 9 Noroeste 0 -- -- 94
2019-08-17 07:00:00 21.4 6 Noroeste 10 Oeste 0 -- -- 91
2019-08-17 06:00:00 21.4 4 Noroeste 7 Noroeste 0 -- -- 85
2019-08-17 05:00:00 21.6 3 Nordeste 6 Nordeste 0 -- -- 87
2019-08-17 04:00:00 21.8 4 Este 5 Nordeste 0 -- -- 89
2019-08-17 03:00:00 21.9 4 Nordeste 8 Este 0 -- -- 89
2019-08-17 02:00:00 22.9 0 Calma 3 Noroeste 0 -- -- 87
2019-08-17 01:00:00 22.8 0 Calma 0 Calma 0 -- -- 87
2019-08-17 00:00:00 23.2 0 Calma 0 Calma 0 -- -- 85
2019-08-16 23:00:00 23.4 0 Calma 6 Oeste 0 -- -- 85
2019-08-16 22:00:00 23.8 5 Oeste 8 Oeste 0 -- -- 84
2019-08-16 21:00:00 23.7 7 Oeste 9 Oeste 0 -- -- 85
2019-08-16 20:00:00 24.9 8 Oeste 10 Oeste 0 -- -- 81
2019-08-16 19:00:00 25.3 5 Sudoeste 6 Sudoeste 0 -- -- 79
2019-08-16 18:00:00 24.8 5 Sudoeste 7 Sudoeste 0 -- -- 81
2019-08-16 17:00:00 25.9 3 Sudoeste 5 Sudoeste 0 -- -- 77
2019-08-16 16:00:00 24.2 4 Sudoeste 5 Sudoeste 0 -- -- 83
2019-08-16 15:00:00 23.6 5 Sudoeste 7 Sur 0 -- -- 84
2019-08-16 14:00:00 24.2 5 Sur 12 Este 0 -- -- 81
2019-08-16 13:00:00 23.9 12 Este 15 Este 0 -- -- 81
2019-08-16 12:00:00 22.8 15 Este 16 Este 0 -- -- 83
2019-08-16 11:00:00 22.5 4 Este 5 Este 0 -- -- 84
2019-08-16 10:00:00 22.2 0 Calma 5 Sudoeste 0 -- -- 87
2019-08-16 09:00:00 20.6 6 Oeste 12 Sudoeste 0 -- -- 91
2019-08-16 08:00:00 20.2 10 Oeste 13 Oeste 0 -- -- 91
2019-08-16 07:00:00 20.5 6 Oeste 10 Noroeste 0 -- -- 82
2019-08-16 06:00:00 20.6 6 Sudoeste 13 Sur 0 -- -- 82
2019-08-16 05:00:00 21 0 Calma 3 Este 0 -- -- 80
2019-08-16 04:00:00 20.6 0 Calma 4 Norte 0 -- -- 81
2019-08-16 03:00:00 21.4 0 Calma 3 Nordeste 0 -- -- 84
2019-08-16 02:00:00 21.3 0 Calma -- -- 0 -- -- 84
2019-08-16 01:00:00 22.3 0 Calma 3 Nordeste 0 -- -- 84
2019-08-16 00:00:00 22.3 0 Calma 4 Noroeste 0 -- -- 86
2019-08-15 23:00:00 22.2 3 Oeste 5 Oeste 0 -- -- 87
2019-08-15 22:00:00 22.8 4 Oeste 8 Oeste 0 -- -- 87
2019-08-15 21:00:00 23.6 4 Oeste 6 Oeste 0 -- -- 84
2019-08-15 20:00:00 26.3 0 Calma 4 Este 0 -- -- 72
2019-08-15 19:00:00 26.4 3 Sudoeste 4 Oeste 0 -- -- 73
2019-08-15 18:00:00 26.5 3 Este 6 Sudeste 0 -- -- 71
2019-08-15 17:00:00 25.9 4 Sur 5 Sur 0 -- -- 75
2019-08-15 16:00:00 25.2 0 Calma 4 Sudoeste 0 -- -- 80
2019-08-15 15:00:00 22.5 3 Sudoeste 8 Sudoeste 0 -- -- 90
2019-08-15 14:00:00 21 8 Sudoeste 10 Oeste 0 -- -- 92
2019-08-15 13:00:00 20.6 9 Oeste 13 Sudoeste 0 -- -- 93
2019-08-15 12:00:00 20.5 10 Oeste 15 Oeste 0 -- -- 93
2019-08-15 11:00:00 20 13 Oeste 17 Oeste 0 -- -- 93
2019-08-15 10:00:00 19.9 16 Oeste 19 Oeste 0 -- -- 92
2019-08-15 09:00:00 21.2 8 Oeste 9 Oeste 0 -- -- 87
2019-08-15 08:00:00 20.9 0 Calma 4 Oeste 0 -- -- 88
2019-08-15 07:00:00 21 0 Calma -- -- 0 -- -- 88
2019-08-15 06:00:00 21.2 0 Calma -- -- 0 -- -- 88
2019-08-15 05:00:00 21.6 0 Calma 4 Oeste 0 -- -- 88
2019-08-15 04:00:00 21 0 Calma 5 Noroeste 0 -- -- 89
2019-08-15 03:00:00 21.5 0 Calma 3 Sudoeste 0 -- -- 88
2019-08-15 02:00:00 22.5 0 Calma 2 Nordeste 0 -- -- 87
2019-08-15 01:00:00 23.2 0 Calma -- -- 0 -- -- 86
2019-08-15 00:00:00 23.4 0 Calma 0 Calma 0 -- -- 85
2019-08-14 23:00:00 23.4 0 Calma 3 Oeste 0 -- -- 85
2019-08-14 22:00:00 23.4 0 Calma 4 Oeste 0 -- -- 86
2019-08-14 21:00:00 25.4 0 Calma 6 Este 0 -- -- 80
2019-08-14 20:00:00 27.2 2 Nordeste 12 Nordeste 0 -- -- 73
2019-08-14 19:00:00 26 11 Nordeste 16 Este 0 -- -- 79
2019-08-14 18:00:00 25.3 15 Este 15 Este 0 -- -- 80
2019-08-14 17:00:00 25.7 15 Nordeste 19 Este 0 -- -- 80
2019-08-14 16:00:00 25 15 Este 17 Nordeste 0 -- -- 81
2019-08-14 15:00:00 24.9 17 Este 18 Este 0 -- -- 81
2019-08-14 14:00:00 24.9 19 Este 25 Este 0 -- -- 81
2019-08-14 13:00:00 24.3 23 Este 25 Este 0 -- -- 84
2019-08-14 12:00:00 24 24 Este 25 Este 0 -- -- 85
2019-08-14 11:00:00 23.7 23 Este 25 Este 0 -- -- 85
2019-08-14 10:00:00 24 21 Este 23 Este 0 -- -- 84
2019-08-14 09:00:00 23.6 17 Este 19 Nordeste 0 -- -- 88
2019-08-14 08:00:00 23.9 13 Nordeste 19 Nordeste 0 -- -- 90
2019-08-14 07:00:00 23.7 16 Nordeste 20 Nordeste 0 -- -- 89
2019-08-14 06:00:00 23.9 15 Nordeste 21 Este 0 -- -- 89
2019-08-14 05:00:00 23.8 13 Nordeste 19 Nordeste 0 -- -- 88
2019-08-14 04:00:00 24 14 Nordeste 17 Nordeste 0 -- -- 87
2019-08-14 03:00:00 24.6 13 Nordeste 21 Nordeste 0 -- -- 86
2019-08-14 02:00:00 25 16 Nordeste 23 Nordeste 0 -- -- 82
2019-08-14 01:00:00 24.9 15 Nordeste 24 Nordeste 0 -- -- 82
2019-08-14 00:00:00 25.2 15 Nordeste 22 Nordeste 0 -- -- 77
2019-08-13 23:00:00 25.3 14 Nordeste 20 Nordeste 0 -- -- 77
2019-08-13 22:00:00 25.4 10 Nordeste 17 Nordeste 0 -- -- 77
2019-08-13 21:00:00 25.9 13 Nordeste 18 Este 0 -- -- 75
2019-08-13 20:00:00 27.3 9 Nordeste 12 Nordeste 0 -- -- 71
2019-08-13 19:00:00 28 5 Nordeste 7 Nordeste 0 -- -- 69
2019-08-13 18:00:00 28.2 4 Este 8 Este 0 -- -- 70
2019-08-13 17:00:00 28.2 0 Calma 5 Sudoeste 0 -- -- 72
2019-08-13 16:00:00 25.4 0 Calma 9 Oeste 0 -- -- 80
2019-08-13 15:00:00 25.9 3 Sur 9 Sudeste 0 -- -- 77
2019-08-13 14:00:00 25.8 6 Este 10 Sudeste 0 -- -- 77
2019-08-13 13:00:00 26 5 Este 12 Sudeste 0 -- -- 74
2019-08-13 12:00:00 24.8 7 Sudeste 14 Este 0 -- -- 77
2019-08-13 11:00:00 22.8 10 Este 20 Este 0 -- -- 80
2019-08-13 10:00:00 23.2 11 Este 20 Nordeste 0 -- -- 79
2019-08-13 09:00:00 23.8 9 Nordeste 18 Nordeste 0 -- -- 75
2019-08-13 08:00:00 24 14 Nordeste 22 Nordeste 0 -- -- 80
2019-08-13 07:00:00 23.4 21 Nordeste 32 Este 0 -- -- 81
2019-08-13 06:00:00 22 30 Este 32 Nordeste 0 -- -- 80
2019-08-13 05:00:00 24.6 20 Nordeste 28 Nordeste 0 -- -- 69
2019-08-13 04:00:00 24.7 18 Nordeste 28 Nordeste 0 -- -- 63
2019-08-13 03:00:00 24 20 Nordeste 33 Nordeste 0 -- -- 55
2019-08-13 02:00:00 24.5 22 Nordeste 29 Nordeste 0 -- -- 49
2019-08-13 01:00:00 21.9 18 Nordeste 30 Este 0 -- -- 64
2019-08-13 00:00:00 23.4 21 Nordeste 28 Nordeste 0 -- -- 50
2019-08-12 23:00:00 21.8 19 Nordeste 27 Este 0 -- -- 63
2019-08-12 22:00:00 20.6 18 Este 20 Este 0 -- -- 76
2019-08-12 21:00:00 21.4 6 Sudoeste 13 Oeste 0 -- -- 75
2019-08-12 20:00:00 21.3 13 Oeste 15 Sudoeste 0 -- -- 78
2019-08-12 19:00:00 21.8 14 Sudoeste 25 Oeste 0 -- -- 76
2019-08-12 18:00:00 22.5 16 Oeste 19 Oeste 0 -- -- 69
2019-08-12 17:00:00 22.4 13 Oeste 21 Oeste 0 -- -- 69
2019-08-12 16:00:00 22 20 Oeste 22 Oeste 0 -- -- 65
2019-08-12 15:00:00 20.8 17 Oeste 22 Oeste 0.2 -- -- 72
2019-08-12 14:00:00 21 17 Oeste 21 Oeste 0 -- -- 69
2019-08-12 13:00:00 20.2 14 Oeste 30 Sudoeste 0 -- -- 73
2019-08-12 12:00:00 20.7 14 Sudoeste 22 Sudoeste 0 -- -- 71
2019-08-12 11:00:00 20 15 Oeste 17 Sudoeste 0 -- -- 79
2019-08-12 10:00:00 20.5 7 Sur 17 Sur 0 -- -- 74
2019-08-12 09:00:00 21 10 Sur 23 Noroeste 0 -- -- 70
2019-08-12 08:00:00 23.1 11 Oeste 31 Noroeste 0 -- -- 38
2019-08-12 07:00:00 26.3 21 Noroeste 46 Norte 0 -- -- 24
2019-08-12 06:00:00 26.9 22 Norte 42 Norte 0 -- -- 23
2019-08-12 05:00:00 20.8 13 Oeste 34 Noroeste 0 -- -- 66
2019-08-12 04:00:00 19.9 10 Oeste 27 Sudoeste 0 -- -- 79
2019-08-12 03:00:00 20 12 Oeste 20 Sudoeste 0 -- -- 78
2019-08-12 02:00:00 20.6 11 Sudoeste 16 Oeste 0 -- -- 75
2019-08-12 01:00:00 20.3 4 Oeste 14 Sur 0 -- -- 78
2019-08-12 00:00:00 21 4 Este 8 Sudeste 0 -- -- 73
2019-08-11 23:00:00 21.6 2 Oeste 9 Norte 0 -- -- 70
2019-08-11 22:00:00 22.7 0 Calma 8 Sur 0 -- -- 63
2019-08-11 21:00:00 23.8 0 Calma 10 Oeste 0 -- -- 59
2019-08-11 20:00:00 23.9 5 Sudoeste 11 Sudoeste 0 -- -- 61
2019-08-11 19:00:00 24.9 4 Sudoeste 15 Sur 0 -- -- 58
2019-08-11 18:00:00 24.2 8 Sur 14 Sudoeste 0 -- -- 61
2019-08-11 17:00:00 23.9 5 Sudoeste 14 Sudoeste 0 -- -- 64
2019-08-11 16:00:00 24 4 Sur 17 Oeste 0 -- -- 65
2019-08-11 15:00:00 23 11 Oeste 23 Oeste 0 -- -- 64
2019-08-11 14:00:00 21.7 16 Oeste 20 Oeste 0 -- -- 73
2019-08-11 13:00:00 21.5 16 Oeste 20 Oeste 0 -- -- 74
2019-08-11 12:00:00 20.9 13 Oeste 16 Oeste 0 -- -- 77
2019-08-11 11:00:00 21.2 8 Sudoeste 12 Sudoeste 0 -- -- 76
2019-08-11 10:00:00 21.5 6 Sudoeste 12 Oeste 0 -- -- 79
2019-08-11 09:00:00 20.3 5 Oeste 10 Sudoeste 0 -- -- 81
2019-08-11 08:00:00 19.7 2 Sudoeste 10 Oeste 0 -- -- 83
2019-08-11 07:00:00 19.8 10 Oeste 15 Sudoeste 0 -- -- 82
2019-08-11 06:00:00 20.5 12 Oeste 19 Sudoeste 0 -- -- 78
2019-08-11 05:00:00 20.2 11 Sudoeste 18 Sudoeste 0 -- -- 79
2019-08-11 04:00:00 20.8 11 Oeste 21 Sudoeste 0 -- -- 74
2019-08-11 03:00:00 20.8 15 Oeste 18 Oeste 0 -- -- 75
2019-08-11 02:00:00 20.6 8 Sudoeste 19 Oeste 0 -- -- 85
2019-08-11 01:00:00 20.7 13 Sudoeste 21 Oeste 0 -- -- 86
2019-08-11 00:00:00 21.5 11 Oeste 15 Oeste 0 -- -- 80
2019-08-10 23:00:00 22.1 15 Oeste 27 Sudoeste 0 -- -- 76
2019-08-10 22:00:00 22.3 15 Oeste 23 Oeste 0 -- -- 77
2019-08-10 21:00:00 23.2 17 Oeste 22 Oeste 0 -- -- 74
2019-08-10 20:00:00 23.7 14 Oeste 19 Oeste 0 -- -- 74
2019-08-10 19:00:00 23.4 10 Oeste 17 Oeste 0 -- -- 80
2019-08-10 18:00:00 23.3 11 Sudoeste 14 Oeste 0 -- -- 79
2019-08-10 17:00:00 23.6 10 Oeste 14 Oeste 0 -- -- 79
2019-08-10 16:00:00 23.1 11 Oeste 21 Oeste 0 -- -- 81
2019-08-10 15:00:00 22.6 19 Oeste 23 Oeste 0 -- -- 81
2019-08-10 14:00:00 22.1 19 Oeste 22 Oeste 0 -- -- 85
2019-08-10 13:00:00 21.6 12 Oeste 14 Oeste 0 -- -- 85
2019-08-10 12:00:00 22.1 9 Sudoeste 12 Oeste 0 -- -- 83
2019-08-10 11:00:00 21.7 9 Oeste 14 Oeste 0 -- -- 84
2019-08-10 10:00:00 21.6 8 Sudoeste 17 Sudoeste 0 -- -- 84
2019-08-10 09:00:00 21.2 7 Oeste 17 Sudoeste 0 -- -- 86
2019-08-10 08:00:00 20.7 12 Sudoeste 17 Sudoeste 0 -- -- 88
2019-08-10 07:00:00 19.9 7 Sudoeste 13 Noroeste 0 -- -- 90
2019-08-10 06:00:00 19.8 4 Sudoeste 8 Oeste 0 -- -- 91
2019-08-10 05:00:00 20.3 0 Calma 6 Sudoeste 0 -- -- 90
2019-08-10 04:00:00 20.5 5 Oeste 13 Oeste 0 -- -- 90
2019-08-10 03:00:00 20.5 10 Oeste 14 Oeste 0 -- -- 89
2019-08-10 02:00:00 20.5 6 Oeste 11 Oeste 0 -- -- 89
2019-08-10 01:00:00 21.1 9 Oeste 13 Oeste 0 -- -- 86
2019-08-10 00:00:00 21.9 5 Oeste 9 Sudoeste 0 -- -- 82
2019-08-09 23:00:00 22.5 8 Oeste 11 Oeste 0 -- -- 78
2019-08-09 22:00:00 23.2 6 Oeste 18 Oeste 0 -- -- 73
2019-08-09 21:00:00 24 16 Oeste 21 Oeste 0 -- -- 70
2019-08-09 20:00:00 23 12 Oeste 14 Sudoeste 0 -- -- 77
2019-08-09 19:00:00 23.3 9 Oeste 16 Oeste 0 -- -- 79
2019-08-09 18:00:00 22.9 12 Oeste 17 Sudoeste 0 -- -- 79
2019-08-09 17:00:00 22.6 16 Oeste 22 Oeste 0 -- -- 80
2019-08-09 16:00:00 22.3 16 Oeste 25 Oeste 0 -- -- 82
2019-08-09 15:00:00 21.9 16 Oeste 21 Oeste 0 -- -- 84
2019-08-09 14:00:00 22.1 12 Sudoeste 16 Sudoeste 0 -- -- 83
2019-08-09 13:00:00 22.2 14 Oeste 20 Oeste 0 -- -- 82
2019-08-09 12:00:00 22.2 12 Oeste 18 Sudoeste 0 -- -- 82
2019-08-09 11:00:00 21.7 9 Sudoeste 14 Sudoeste 0 -- -- 83
2019-08-09 10:00:00 21.6 12 Sudoeste 13 Sudoeste 0 -- -- 83
2019-08-09 09:00:00 21.7 5 Sudoeste 11 Oeste 0 -- -- 71
2019-08-09 08:00:00 20.6 8 Oeste 14 Oeste 0 -- -- 72
2019-08-09 07:00:00 20.4 10 Oeste 16 Sudoeste 0 -- -- 80
2019-08-09 06:00:00 22 4 Norte 11 Oeste 0 -- -- 72
2019-08-09 05:00:00 20 11 Oeste 13 Oeste 0 -- -- 77
2019-08-09 04:00:00 20.4 0 Calma 4 Norte 0 -- -- 85
2019-08-09 03:00:00 20.9 0 Calma 4 Nordeste 0 -- -- 86
2019-08-09 02:00:00 21.2 5 Este 8 Este 0 -- -- 85
2019-08-09 01:00:00 21.7 7 Este 8 Nordeste 0 -- -- 82
2019-08-09 00:00:00 22 5 Este 10 Este 0 -- -- 81
2019-08-08 23:00:00 23 6 Nordeste 7 Este 0 -- -- 76
2019-08-08 22:00:00 22.6 5 Sur 8 Sudoeste 0 -- -- 79
2019-08-08 21:00:00 25.2 0 Calma 3 Sudoeste 0 -- -- 69
2019-08-08 20:00:00 26.5 0 Calma 6 Sudoeste 0 -- -- 66
2019-08-08 19:00:00 25.2 6 Sudoeste 10 Oeste 0 -- -- 74
2019-08-08 18:00:00 24 10 Sudoeste 16 Oeste 0 -- -- 82
2019-08-08 17:00:00 23.6 13 Oeste 14 Oeste 0 -- -- 82
2019-08-08 16:00:00 23.6 9 Sudoeste 14 Sudoeste 0 -- -- 81
2019-08-08 15:00:00 23.5 8 Sudoeste 9 Sudoeste 0 -- -- 82
2019-08-08 14:00:00 24.2 4 Sudoeste 5 Sur 0 -- -- 75
2019-08-08 13:00:00 24.9 2 Sur 9 Sudoeste 0 -- -- 71
2019-08-08 12:00:00 22.1 11 Sudoeste 13 Sudoeste 0 -- -- 80
2019-08-08 11:00:00 21.8 12 Oeste 14 Oeste 0 -- -- 81
2019-08-08 10:00:00 21.8 10 Sudoeste 14 Oeste 0 -- -- 82
2019-08-08 09:00:00 21.4 12 Oeste 13 Oeste 0 -- -- 81
2019-08-08 08:00:00 21.2 5 Oeste 18 Sur 0 -- -- 79
2019-08-08 07:00:00 23.2 10 Oeste 23 Noroeste 0 -- -- 69
2019-08-08 06:00:00 27.9 14 Noroeste 27 Noroeste 0 -- -- 37
2019-08-08 05:00:00 21.3 10 Oeste 13 Sudoeste 0 -- -- 82
2019-08-08 04:00:00 21.2 10 Oeste 13 Oeste 0 -- -- 84
2019-08-08 03:00:00 21.5 8 Oeste 14 Sudoeste 0 -- -- 81
2019-08-08 02:00:00 22.5 11 Sudoeste 17 Oeste 0 -- -- 81
2019-08-08 01:00:00 22.5 10 Oeste 14 Oeste 0 -- -- 80
2019-08-08 00:00:00 22.3 8 Oeste 13 Oeste 0 -- -- 80
2019-08-07 23:00:00 22.6 11 Oeste 22 Oeste 0 -- -- 77
2019-08-07 22:00:00 22.8 12 Oeste 16 Oeste 0 -- -- 78
2019-08-07 21:00:00 22.5 9 Oeste 17 Sudoeste 0 -- -- 80
2019-08-07 20:00:00 24.2 10 Sudoeste 18 Sudoeste 0 -- -- 74
2019-08-07 19:00:00 25.9 10 Sudoeste 22 Oeste 0 -- -- 68
2019-08-07 18:00:00 27.5 19 Oeste 30 Oeste 0 -- -- 58
2019-08-07 17:00:00 26 22 Oeste 28 Oeste 0 -- -- 68
2019-08-07 16:00:00 25.1 17 Oeste 25 Oeste 0.2 -- -- 71
2019-08-07 15:00:00 24.6 18 Oeste 24 Oeste 0 -- -- 73
2019-08-07 14:00:00 24.6 17 Oeste 20 Oeste 0 -- -- 72
2019-08-07 13:00:00 23 18 Oeste 19 Sudoeste 0 -- -- 82
2019-08-07 12:00:00 22.6 15 Oeste 20 Sudoeste 0 -- -- 81
2019-08-07 11:00:00 22 18 Oeste 21 Oeste 0 -- -- 85
2019-08-07 10:00:00 22.1 13 Sudoeste 19 Oeste 0 -- -- 83
2019-08-07 09:00:00 21.7 16 Oeste 20 Oeste 0 -- -- 80
2019-08-07 08:00:00 21.3 10 Oeste 13 Oeste 0 -- -- 79
2019-08-07 07:00:00 20.8 12 Oeste 20 Oeste 0 -- -- 76
2019-08-07 06:00:00 21.2 8 Oeste 14 Sudoeste 0 -- -- 78
2019-08-07 05:00:00 21.3 6 Oeste 14 Oeste 0 -- -- 81
2019-08-07 04:00:00 21.8 8 Oeste 12 Oeste 0 -- -- 79
2019-08-07 03:00:00 22.8 0 Calma 11 Este 0 -- -- 78
2019-08-07 02:00:00 23.6 10 Este 13 Este 0 -- -- 83
2019-08-07 01:00:00 23.7 4 Nordeste 10 Nordeste 0 -- -- 72
2019-08-07 00:00:00 23.2 6 Oeste 9 Sudoeste 0 -- -- 82
2019-08-06 23:00:00 23.6 9 Sudoeste 10 Sur 0 -- -- 78
2019-08-06 22:00:00 23.7 4 Sudoeste 6 Sudoeste 0 -- -- 73
2019-08-06 21:00:00 24.5 0 Calma 9 Sudoeste 0 -- -- 62
2019-08-06 20:00:00 24.7 11 Sudoeste 18 Sudoeste 0 -- -- 59
2019-08-06 19:00:00 26.6 16 Oeste 25 Oeste 0 -- -- 57
2019-08-06 18:00:00 25 17 Oeste 22 Oeste 0 -- -- 66
2019-08-06 17:00:00 24.7 11 Sudoeste 13 Sudoeste 0 -- -- 78
2019-08-06 16:00:00 24.6 10 Sudoeste 14 Oeste 0 -- -- 72
2019-08-06 15:00:00 25.3 9 Sudoeste 11 Sudoeste 0 -- -- 75
2019-08-06 14:00:00 26.3 2 Sur 5 Sudoeste 0 -- -- 67
2019-08-06 13:00:00 25.4 5 Sudoeste 9 Sur 0 -- -- 73
2019-08-06 12:00:00 24.5 2 Sudoeste 13 Sudoeste 0 -- -- 71
2019-08-06 11:00:00 23 10 Sudoeste 19 Sudoeste 0 -- -- 86
2019-08-06 10:00:00 22.7 15 Oeste 19 Oeste 0 -- -- 88
2019-08-06 09:00:00 24.4 3 Noroeste 20 Sudeste 0 -- -- 82
2019-08-06 08:00:00 22.1 10 Oeste 13 Oeste 0 -- -- 83
2019-08-06 07:00:00 21.4 8 Oeste 11 Oeste 0 -- -- 86
2019-08-06 06:00:00 22 5 Oeste 12 Oeste 0 -- -- 85
2019-08-06 05:00:00 23.3 4 Nordeste 9 Este 0 -- -- 88
2019-08-06 04:00:00 22.7 3 Oeste 11 Sudoeste 0 -- -- 86
2019-08-06 03:00:00 23.7 8 Nordeste 22 Este 0 -- -- 79
2019-08-06 02:00:00 23.6 19 Este 22 Este 0 -- -- 87
2019-08-06 01:00:00 22.9 8 Este 10 Este 0 -- -- 87
2019-08-06 00:00:00 22.7 0 Calma 10 Sur 0 -- -- 86
2019-08-05 23:00:00 23 3 Noroeste 9 Oeste 0 -- -- 82
2019-08-05 22:00:00 22.4 6 Oeste 9 Oeste 0 -- -- 85
2019-08-05 21:00:00 23.3 4 Sudoeste 9 Sudoeste 0 -- -- 81
2019-08-05 20:00:00 25.4 2 Sudoeste 11 Sur 0 -- -- 75
2019-08-05 19:00:00 25.1 8 Sudoeste 9 Sudoeste 0 -- -- 77
2019-08-05 18:00:00 26.4 5 Sur 7 Sur 0 -- -- 71
2019-08-05 17:00:00 26.5 4 Sur 5 Sudeste 0 -- -- 68
2019-08-05 16:00:00 25.8 0 Calma 10 Sudoeste 0 -- -- 74
2019-08-05 15:00:00 24.1 8 Sudoeste 14 Sudoeste 0 -- -- 83
2019-08-05 14:00:00 26 5 Sur 6 Sur 0 -- -- 76
2019-08-05 13:00:00 26.7 0 Calma 7 Sur 0 -- -- 71
2019-08-05 12:00:00 25.2 0 Calma 12 Oeste 0 -- -- 76
2019-08-05 11:00:00 23.1 10 Oeste 12 Oeste 0 -- -- 85
2019-08-05 10:00:00 24.2 0 Calma 6 Oeste 0 -- -- 78
2019-08-05 09:00:00 22.5 4 Oeste 6 Oeste 0 -- -- 83
2019-08-05 08:00:00 21.6 2 Noroeste 4 Oeste 0 -- -- 87
2019-08-05 07:00:00 21.3 0 Calma 5 Noroeste 0 -- -- 88
2019-08-05 06:00:00 21.7 0 Calma 6 Nordeste 0 -- -- 89
2019-08-05 05:00:00 21.5 3 Oeste 8 Sudoeste 0 -- -- 89
2019-08-05 04:00:00 21.8 6 Sudoeste 21 Este 0 -- -- 88
2019-08-05 03:00:00 22.6 16 Este 22 Este 0 -- -- 83
2019-08-05 02:00:00 22 14 Este 20 Este 0 -- -- 87
2019-08-05 01:00:00 21.7 14 Este 19 Este 0 -- -- 88
2019-08-05 00:00:00 21.8 0 Calma 6 Sur 0 -- -- 88
2019-08-04 23:00:00 21.5 8 Sur 14 Sur 0 -- -- 88
2019-08-04 22:00:00 22.1 9 Sur 12 Sur 0 -- -- 84
2019-08-04 21:00:00 23.4 11 Sur 13 Sur 0 -- -- 77
2019-08-04 20:00:00 25.8 4 Sur 12 Oeste 0 -- -- 73
2019-08-04 19:00:00 24.7 11 Oeste 13 Oeste 0 -- -- 78
2019-08-04 18:00:00 24.7 9 Oeste 12 Sudoeste 0 -- -- 76
2019-08-04 17:00:00 24.5 10 Sudoeste 14 Sudoeste 0 -- -- 75
2019-08-04 16:00:00 24.1 12 Oeste 15 Sudoeste 0 -- -- 77
2019-08-04 15:00:00 23.8 12 Sudoeste 14 Sudoeste 0 -- -- 79
2019-08-04 14:00:00 23.3 13 Sudoeste 14 Sudoeste 0 -- -- 80
2019-08-04 13:00:00 23 13 Sudoeste 17 Sudoeste 0 -- -- 82
2019-08-04 12:00:00 22.9 12 Oeste 17 Oeste 0 -- -- 80
2019-08-04 11:00:00 22.8 15 Oeste 17 Oeste 0 -- -- 82
2019-08-04 10:00:00 22.5 15 Sudoeste 17 Oeste 0 -- -- 84
2019-08-04 09:00:00 21.9 15 Oeste 20 Oeste 0 -- -- 85
2019-08-04 08:00:00 21.8 11 Oeste 15 Oeste 0 -- -- 84
2019-08-04 07:00:00 20.8 11 Oeste 13 Oeste 0 -- -- 86
2019-08-04 06:00:00 21.2 5 Oeste 9 Sudoeste 0 -- -- 88
2019-08-04 05:00:00 21.6 5 Oeste 15 Este 0 -- -- 88
2019-08-04 04:00:00 21.8 14 Este 19 Este 0 -- -- 87
2019-08-04 03:00:00 21.9 7 Este 8 Este 0 -- -- 84
2019-08-04 02:00:00 22.7 0 Calma 4 Norte 0 -- -- 84
2019-08-04 01:00:00 21.6 4 Sudoeste 13 Oeste 0 -- -- 88
2019-08-04 00:00:00 21.9 13 Oeste 17 Oeste 0 -- -- 89
2019-08-03 23:00:00 22.4 13 Oeste 17 Oeste 0 -- -- 86
2019-08-03 22:00:00 23.2 13 Oeste 16 Oeste 0 -- -- 83
2019-08-03 21:00:00 23.9 12 Oeste 14 Oeste 0 -- -- 80
2019-08-03 20:00:00 24 13 Oeste 14 Oeste 0 -- -- 76
2019-08-03 19:00:00 24.5 7 Sudoeste 12 Oeste 0 -- -- 76
2019-08-03 18:00:00 24.1 11 Oeste 13 Oeste 0 -- -- 76
2019-08-03 17:00:00 24 10 Oeste 13 Oeste 0 -- -- 80
2019-08-03 16:00:00 23.6 10 Oeste 13 Oeste 0 -- -- 81
2019-08-03 15:00:00 25 6 Sur 8 Sudoeste 0 -- -- 80
2019-08-03 14:00:00 24.5 4 Sur 6 Sudoeste 0 -- -- 82
2019-08-03 13:00:00 24 4 Sudoeste 13 Sudeste 0 -- -- 83
2019-08-03 12:00:00 23.7 10 Este 16 Este 0 -- -- 83
2019-08-03 11:00:00 24.8 4 Nordeste 7 Este 0 -- -- 74
2019-08-03 10:00:00 24.3 6 Nordeste 9 Este 0 -- -- 73
2019-08-03 09:00:00 22.4 3 Sudoeste 6 Noroeste 0 -- -- 81
2019-08-03 08:00:00 21.4 4 Noroeste 6 Oeste 0 -- -- 85
2019-08-03 07:00:00 21.2 0 Calma 4 Este 0 -- -- 84
2019-08-03 06:00:00 21.2 3 Nordeste 6 Noroeste 0 -- -- 85
2019-08-03 05:00:00 20.8 4 Oeste 10 Oeste 0 -- -- 86
2019-08-03 04:00:00 21.3 3 Oeste 6 Sudoeste 0 -- -- 84
2019-08-03 03:00:00 21.7 0 Calma 9 Oeste 0 -- -- 81
2019-08-03 02:00:00 21.8 9 Oeste 12 Noroeste 0 -- -- 81
2019-08-03 01:00:00 22.2 9 Oeste 13 Oeste 0 -- -- 77
2019-08-03 00:00:00 21.9 3 Oeste 14 Sudeste 0 -- -- 80
2019-08-02 23:00:00 21.7 5 Nordeste 9 Sur 0 -- -- 86
2019-08-02 22:00:00 21.8 0 Calma 13 Sur 0 -- -- 86
2019-08-02 21:00:00 23.2 3 Sudoeste 9 Este 0 -- -- 84
2019-08-02 20:00:00 23.7 10 Este 18 Este 0 -- -- 84
2019-08-02 19:00:00 24.2 15 Este 16 Este 0 -- -- 83
2019-08-02 18:00:00 24.1 16 Este 27 Este 0 -- -- 82
2019-08-02 17:00:00 24.2 25 Este 31 Este 0 -- -- 83
2019-08-02 16:00:00 22.5 28 Este 30 Este 0 -- -- 87
2019-08-02 15:00:00 23.3 23 Este 26 Este 0 -- -- 83
2019-08-02 14:00:00 23.4 20 Este 23 Nordeste 0 -- -- 82
2019-08-02 13:00:00 24 5 Sudeste 12 Sudoeste 0 -- -- 81
2019-08-02 12:00:00 22.8 5 Sudoeste 9 Sudoeste 0 -- -- 84
2019-08-02 11:00:00 21.9 6 Sudoeste 10 Sudoeste 0 -- -- 86
2019-08-02 10:00:00 21.5 3 Oeste 20 Oeste 0 -- -- 88
2019-08-02 09:00:00 22 17 Oeste 20 Oeste 0 -- -- 87
2019-08-02 08:00:00 21.1 6 Oeste 8 Oeste 0 -- -- 89
2019-08-02 07:00:00 22 5 Este 19 Este 0 -- -- 89
2019-08-02 06:00:00 21.6 16 Este 19 Nordeste 0 -- -- 86
2019-08-02 05:00:00 22.4 14 Nordeste 18 Este 0 -- -- 86
2019-08-02 04:00:00 21.3 17 Este 21 Este 0 -- -- 88
2019-08-02 03:00:00 21.7 7 Nordeste 10 Este 0 -- -- 82
2019-08-02 02:00:00 23.9 5 Norte 9 Norte 0 -- -- 78
2019-08-02 01:00:00 22.4 4 Oeste 8 Oeste 0 -- -- 83
2019-08-02 00:00:00 23.1 9 Oeste 11 Oeste 0 -- -- 79
2019-08-01 23:00:00 23 10 Oeste 14 Oeste 0 -- -- 79
2019-08-01 22:00:00 24.3 9 Oeste 20 Oeste 0 -- -- 74
2019-08-01 21:00:00 23.6 17 Oeste 22 Oeste 0 -- -- 77
2019-08-01 20:00:00 23.9 19 Oeste 22 Oeste 0 -- -- 77
2019-08-01 19:00:00 24.3 20 Oeste 22 Oeste 0 -- -- 75
2019-08-01 18:00:00 23.4 17 Oeste 21 Oeste 0 -- -- 84
2019-08-01 17:00:00 23.8 17 Oeste 18 Oeste 0 -- -- 83
2019-08-01 16:00:00 23.5 12 Oeste 14 Oeste 0 -- -- 84
2019-08-01 15:00:00 24.7 10 Sudoeste 11 Sudoeste 0 -- -- 80
2019-08-01 14:00:00 25.1 8 Sudoeste 10 Sudoeste 0 -- -- 76
2019-08-01 13:00:00 23.9 10 Sudoeste 12 Sudoeste 0 -- -- 79
2019-08-01 12:00:00 24.4 7 Oeste 9 Oeste 0 -- -- 77
2019-08-01 11:00:00 24.4 5 Sudoeste 6 Sudoeste 0 -- -- 75
2019-08-01 10:00:00 24.5 4 Sudoeste 10 Sudoeste 0 -- -- 72
2019-08-01 09:00:00 24.4 4 Oeste 5 Norte 0 -- -- 75
2019-08-01 08:00:00 23.9 2 Nordeste 21 Este 0 -- -- 76
2019-08-01 07:00:00 23.5 3 Noroeste 6 Noroeste 0 -- -- 79
2019-08-01 06:00:00 23.9 4 Norte 12 Este 0 -- -- 78
2019-08-01 05:00:00 24 8 Nordeste 15 Este 0 -- -- 77
2019-08-01 04:00:00 24.6 7 Nordeste 13 Nordeste 0 -- -- 75
2019-08-01 03:00:00 24.1 4 Nordeste 7 Nordeste 0 -- -- 77
2019-08-01 02:00:00 24.2 0 Calma 8 Nordeste 0 -- -- 75
2019-08-01 01:00:00 24.7 6 Nordeste 15 Nordeste 0 -- -- 74
2019-08-01 00:00:00 24.9 13 Nordeste 23 Nordeste 0 -- -- 73
2019-07-31 23:00:00 25.2 11 Nordeste 21 Nordeste 0 -- -- 72
2019-07-31 22:00:00 25.3 16 Nordeste 30 Nordeste 0 -- -- 73
2019-07-31 21:00:00 26.3 18 Nordeste 27 Nordeste 0 -- -- 67
2019-07-31 20:00:00 26.7 14 Este 22 Este 0 -- -- 66
2019-07-31 19:00:00 26.7 17 Nordeste 26 Este 0 -- -- 65
2019-07-31 18:00:00 26.9 13 Este 28 Este 0 -- -- 65
2019-07-31 17:00:00 27 13 Este 30 Este 0 -- -- 63
2019-07-31 16:00:00 27.7 19 Este 31 Nordeste 0 -- -- 58
2019-07-31 15:00:00 27.3 18 Este 30 Nordeste 0 -- -- 60
2019-07-31 14:00:00 26.8 19 Este 30 Este 0 -- -- 62
2019-07-31 13:00:00 26.4 18 Este 28 Este 0 -- -- 64
2019-07-31 12:00:00 26.1 16 Este 30 Nordeste 0 -- -- 68
2019-07-31 11:00:00 25.3 17 Nordeste 30 Nordeste 0 -- -- 73
2019-07-31 10:00:00 25.9 19 Nordeste 30 Nordeste 0 -- -- 70
2019-07-31 09:00:00 25.4 18 Nordeste 27 Nordeste 0 -- -- 72
2019-07-31 08:00:00 24.3 13 Nordeste 21 Nordeste 0 -- -- 76
2019-07-31 07:00:00 23.3 9 Norte 18 Nordeste 0 -- -- 83
2019-07-31 06:00:00 23.1 5 Norte 8 Norte 0 -- -- 82
2019-07-31 05:00:00 21.6 0 Calma 15 Este 0 -- -- 81
2019-07-31 04:00:00 23.6 13 Nordeste 34 Nordeste 0 -- -- 72
2019-07-31 03:00:00 24.4 23 Nordeste 41 Nordeste 0 -- -- 77
2019-07-31 02:00:00 23.9 31 Nordeste 41 Nordeste 0 -- -- 81
2019-07-31 01:00:00 24.3 28 Nordeste 38 Nordeste 0 -- -- 72
2019-07-31 00:00:00 21.4 2 Sudoeste 8 Sudoeste 0 -- -- 82
2019-07-30 23:00:00 21.8 5 Oeste 5 Sudoeste 0 -- -- 85
2019-07-30 22:00:00 22.1 0 Calma 12 Oeste 0 -- -- 85
2019-07-30 21:00:00 22.5 7 Oeste 9 Oeste 0 -- -- 85
2019-07-30 20:00:00 23.3 7 Oeste 8 Oeste 0 -- -- 81
2019-07-30 19:00:00 25 3 Sudoeste 5 Sudeste 0 -- -- 74
2019-07-30 18:00:00 24.2 0 Calma 9 Sudoeste 0 -- -- 78
2019-07-30 17:00:00 24 7 Este 14 Este 0 -- -- 80
2019-07-30 16:00:00 23 13 Este 22 Este 0 -- -- 81
2019-07-30 15:00:00 22.2 22 Este 27 Este 0 -- -- 83
2019-07-30 14:00:00 22.1 22 Este 24 Este 0 -- -- 82
2019-07-30 13:00:00 22.2 18 Este 19 Este 0 -- -- 82
2019-07-30 12:00:00 22.3 15 Este 20 Este 0 -- -- 83
2019-07-30 11:00:00 21.6 18 Este 19 Este 0 -- -- 83
2019-07-30 10:00:00 21.5 14 Este 18 Este 0 -- -- 83
2019-07-30 09:00:00 21.8 4 Nordeste 20 Este 0 -- -- 85
2019-07-30 08:00:00 20.8 15 Este 18 Este 0 -- -- 86
2019-07-30 07:00:00 21.3 13 Nordeste 20 Nordeste 0 -- -- 79
2019-07-30 06:00:00 19.9 3 Oeste 14 Sudoeste 0 -- -- 81
2019-07-30 05:00:00 20 8 Oeste 14 Sudoeste 0 -- -- 82
2019-07-30 04:00:00 20 7 Sudoeste 14 Sudoeste 0 -- -- 84
2019-07-30 03:00:00 19.7 12 Oeste 13 Oeste 0 -- -- 83
2019-07-30 02:00:00 20.1 6 Oeste 10 Oeste 0 -- -- 85
2019-07-30 01:00:00 19.8 4 Oeste 16 Sudoeste 0 -- -- 87
2019-07-30 00:00:00 20.6 8 Oeste 13 Noroeste 0 -- -- 80
2019-07-29 23:00:00 19.8 6 Oeste 14 Sudoeste 0 -- -- 86
2019-07-29 22:00:00 20.7 11 Oeste 19 Oeste 0 -- -- 80
2019-07-29 21:00:00 22.3 13 Sudoeste 25 Oeste 0 -- -- 73
2019-07-29 20:00:00 23.6 22 Oeste 31 Oeste 0 -- -- 69
2019-07-29 19:00:00 23.3 28 Oeste 33 Oeste 0 -- -- 73
2019-07-29 18:00:00 22.4 15 Oeste 22 Oeste 0 -- -- 80
2019-07-29 17:00:00 22.7 17 Oeste 25 Oeste 0 -- -- 78
2019-07-29 16:00:00 22.1 15 Oeste 23 Oeste 0 -- -- 82
2019-07-29 15:00:00 21.7 14 Oeste 19 Oeste 0 -- -- 82
2019-07-29 14:00:00 21.6 16 Oeste 18 Oeste 0 -- -- 82
2019-07-29 13:00:00 20.8 12 Sudoeste 17 Oeste 0 -- -- 84
2019-07-29 12:00:00 20.7 15 Oeste 16 Oeste 0 -- -- 82
2019-07-29 11:00:00 20 13 Oeste 15 Oeste 0 -- -- 85
2019-07-29 10:00:00 21 5 Sudoeste 12 Oeste 0 -- -- 81
2019-07-29 09:00:00 20.3 9 Oeste 12 Oeste 0 -- -- 85
2019-07-29 08:00:00 19.4 3 Nordeste 8 Oeste 0 -- -- 89
2019-07-29 07:00:00 19.1 2 Noroeste 7 Oeste 0 -- -- 90
2019-07-29 06:00:00 18.9 6 Oeste 9 Sur 0 -- -- 90
2019-07-29 05:00:00 19.6 2 Nordeste 10 Este 0 -- -- 87
2019-07-29 04:00:00 20.1 8 Este 8 Este 0 -- -- 85
2019-07-29 03:00:00 20.2 0 Calma 9 Oeste 0 -- -- 85
2019-07-29 02:00:00 20.2 9 Oeste 12 Oeste 0 -- -- 84
2019-07-29 01:00:00 21.2 10 Oeste 12 Oeste 0 -- -- 79
2019-07-29 00:00:00 21.2 7 Oeste 13 Oeste 0 -- -- 79
2019-07-28 23:00:00 21.3 7 Oeste 9 Oeste 0 -- -- 78
2019-07-28 22:00:00 21 10 Sudoeste 12 Oeste 0 -- -- 79
2019-07-28 21:00:00 22.1 9 Oeste 21 Oeste 0 -- -- 74
2019-07-28 20:00:00 22.8 19 Oeste 27 Oeste 0 -- -- 71
2019-07-28 19:00:00 22.8 21 Oeste 27 Oeste 0 -- -- 73
2019-07-28 18:00:00 23.2 17 Oeste 27 Oeste 0 -- -- 71
2019-07-28 17:00:00 22.8 21 Oeste 28 Oeste 0 -- -- 71
2019-07-28 16:00:00 22.7 17 Oeste 28 Oeste 0 -- -- 73
2019-07-28 15:00:00 22.1 21 Oeste 30 Oeste 0 -- -- 76
2019-07-28 14:00:00 21.8 17 Oeste 24 Oeste 0 -- -- 79
2019-07-28 13:00:00 21.7 18 Oeste 34 Sudoeste 0 -- -- 79
2019-07-28 12:00:00 21.8 13 Oeste 30 Sudoeste 0 -- -- 78
2019-07-28 11:00:00 21.3 19 Oeste 27 Oeste 0 -- -- 77
2019-07-28 10:00:00 21 15 Oeste 19 Sudoeste 0 -- -- 80
2019-07-28 09:00:00 20.6 8 Sudoeste 18 Sudoeste 0 -- -- 85
2019-07-28 08:00:00 19.9 5 Oeste 21 Oeste 0 -- -- 86
2019-07-28 07:00:00 20.3 15 Oeste 23 Oeste 0 -- -- 84
2019-07-28 06:00:00 20.2 14 Oeste 23 Oeste 0 -- -- 85
2019-07-28 05:00:00 20.4 15 Oeste 27 Oeste 0 -- -- 83
2019-07-28 04:00:00 21.2 24 Oeste 36 Oeste 0 -- -- 81
2019-07-28 03:00:00 21.8 20 Oeste 34 Oeste 0 -- -- 79
2019-07-28 02:00:00 21.6 22 Oeste 49 Oeste 0 -- -- 82
2019-07-28 01:00:00 21.7 13 Oeste 22 Oeste 0 -- -- 82
2019-07-28 00:00:00 21.8 15 Oeste 33 Oeste 0 -- -- 82
2019-07-27 23:00:00 22 25 Oeste 44 Oeste 0 -- -- 82
2019-07-26 12:00:00 -- -- -- -- -- -- -- -- --
2019-07-26 11:00:00 -- -- -- -- -- -- -- -- --
2019-07-26 10:00:00 22.8 13 Oeste 30 Sudoeste 0 -- -- 83
2019-07-26 09:00:00 22.6 22 Sudoeste 28 Oeste 0 -- -- 85
2019-07-26 08:00:00 22.4 21 Oeste 26 Oeste 0 -- -- 86
2019-07-26 07:00:00 21.9 9 Oeste 14 Oeste 0 -- -- 87
2019-07-26 06:00:00 21.6 4 Oeste 6 Noroeste 0 -- -- 86
2019-07-26 05:00:00 22.4 0 Calma 10 Noroeste 0 -- -- 85
2019-07-26 04:00:00 22.4 4 Oeste 8 Norte 0 -- -- 86
2019-07-26 03:00:00 23.1 3 Norte 8 Norte 0 -- -- 87
2019-07-26 02:00:00 23 5 Nordeste 6 Nordeste 0 -- -- 86
2019-07-26 01:00:00 23.4 2 Noroeste 8 Oeste 0 -- -- 88
2019-07-26 00:00:00 23.8 3 Oeste 10 Sur 0 -- -- 88
2019-07-25 23:00:00 24.3 2 Norte 9 Sudoeste 0 -- -- 76
2019-07-25 22:00:00 25.1 6 Oeste 15 Oeste 0 -- -- 75
2019-07-25 21:00:00 25.1 14 Oeste 18 Oeste 0 -- -- 82
2019-07-25 20:00:00 25.5 12 Oeste 14 Oeste 0 -- -- 80
2019-07-25 19:00:00 25.7 12 Sudoeste 14 Sudoeste 0 -- -- 84
2019-07-25 18:00:00 26.1 10 Oeste 12 Oeste 0 -- -- 82
2019-07-25 17:00:00 25.9 9 Sudoeste 13 Oeste 0 -- -- 81
2019-07-25 16:00:00 25.2 12 Oeste 15 Oeste 0 -- -- 84
2019-07-25 15:00:00 25.1 12 Oeste 13 Oeste 0 -- -- 83
2019-07-25 14:00:00 25.1 11 Oeste 13 Oeste 0 -- -- 83
2019-07-25 13:00:00 25.5 8 Sudoeste 9 Sudoeste 0 -- -- 81
2019-07-25 12:00:00 25.9 4 Sudoeste 8 Sudoeste 0 -- -- 76
2019-07-25 11:00:00 24.7 7 Sudoeste 15 Oeste 0 -- -- 78
2019-07-25 10:00:00 24.3 13 Oeste 15 Oeste 0 -- -- 77
2019-07-25 09:00:00 24.4 10 Oeste 13 Oeste 0 -- -- 75
2019-07-25 08:00:00 23 9 Oeste 12 Oeste 0 -- -- 78
2019-07-25 07:00:00 23.9 0 Calma 4 Norte 0 -- -- 77
2019-07-25 06:00:00 24 0 Calma 4 Nordeste 0 -- -- 76
2019-07-25 05:00:00 24.3 0 Calma 5 Noroeste 0 -- -- 74
2019-07-25 04:00:00 24.8 2 Noroeste 4 Noroeste 0 -- -- 72
2019-07-25 03:00:00 25.6 3 Nordeste 8 Norte 0 -- -- 70
2019-07-25 02:00:00 25.1 4 Norte 6 Norte 0 -- -- 73
2019-07-25 01:00:00 24.9 0 Calma 4 Sudeste 0 -- -- 75
2019-07-25 00:00:00 25.6 0 Calma 5 Este 0 -- -- 73
2019-07-24 23:00:00 25.6 0 Calma 4 Oeste -- -- -- 72
2019-07-24 22:00:00 25.7 0 Calma 4 Oeste 0 -- -- 72
2019-07-24 21:00:00 27.7 4 Este 9 Este 0 -- -- 65
2019-07-24 20:00:00 27.5 10 Este 15 Este 0 -- -- 64
2019-07-24 19:00:00 27.4 11 Este 13 Este 0 -- -- 61
2019-07-24 18:00:00 28.5 7 Este 14 Este 0 -- -- 56
2019-07-24 17:00:00 27.8 11 Este 18 Sudeste 0 -- -- 61
2019-07-24 16:00:00 27.9 15 Sudeste 21 Sudeste 0 -- -- 59
2019-07-24 15:00:00 28.1 6 Sur 9 Sur 0 -- -- 70
2019-07-24 14:00:00 27.4 5 Sudoeste 6 Sudoeste 0 -- -- 70
2019-07-24 13:00:00 27.4 3 Sudoeste 7 Sur 0 -- -- 66
2019-07-24 12:00:00 26.8 4 Sudoeste 8 Sur 0 -- -- 69
2019-07-24 11:00:00 26.5 2 Sudoeste 9 Oeste 0 -- -- 73
2019-07-24 10:00:00 25.2 9 Oeste 12 Sudoeste 0 -- -- 76
2019-07-24 09:00:00 25.9 6 Oeste 10 Oeste 0 -- -- 75
2019-07-24 08:00:00 24.7 6 Noroeste 14 Noroeste 0 -- -- 79
2019-07-24 07:00:00 23.8 10 Noroeste 14 Oeste 0 -- -- 82
2019-07-24 06:00:00 24.1 8 Noroeste 13 Noroeste 0 -- -- 81
2019-07-24 05:00:00 24.4 8 Noroeste 13 Noroeste 0 -- -- 80
2019-07-24 04:00:00 24.4 6 Noroeste 10 Noroeste 0 -- -- 81
2019-07-24 03:00:00 24.5 3 Noroeste 5 Noroeste 0 -- -- 81
2019-07-24 02:00:00 24.9 0 Calma 9 Nordeste 0 -- -- 80
2019-07-24 01:00:00 25.4 5 Nordeste 13 Nordeste 0 -- -- 78
2019-07-24 00:00:00 24.9 6 Este 8 Este 0 -- -- 79